Kimberly Turecamo — WDC6838 — position and weather

sailwx.info

Track history (hours):
 
Tides and Currents Weather Stations Pressure Air Temp Water Temp Dewpoint Dewpoint Depression Visibility Wind Speed Wind Dir Waves Ship Positions

Kimberly Turecamo

Owner: Moran Towing Corporation, New Canaan, CT. More information available from US FCC via Universal Licensing System and Coast Guard Vessel Documentation Center.

Last reported at 2017-Oct-20 03:30 UTC. Time now 2017-Oct-20 03:39 UTC.
Position N 40°39' W 074°05'.

Length 120 m; draft 5 m.

Type: . MMSI: 367061980.

Date/timePositionNaut miles runAvg speedWind from/ knotsBaromVisibWave heightAir tempDewpointWater temp
2017-Oct-20 03:30N 40°39' W 074°05'2 4.5
2017-Oct-20 03:01N 40°40' W 074°02'0 0.1
2017-Oct-20 02:30N 40°40' W 074°02'0 0.0
2017-Oct-20 02:00N 40°40' W 074°02'0 0.0
2017-Oct-20 01:30N 40°40' W 074°02'0 0.0
2017-Oct-20 01:00N 40°40' W 074°02'0 0.0
2017-Oct-20 00:30N 40°40' W 074°02'0 0.0
2017-Oct-20 00:00N 40°40' W 074°02'0 0.0
2017-Oct-19 23:30N 40°40' W 074°02'0 0.0
2017-Oct-19 23:01N 40°40' W 074°02'0 0.1
2017-Oct-19 22:30N 40°40' W 074°02'3 5.6
2017-Oct-19 22:00N 40°38' W 074°03'0 0.4
2017-Oct-19 21:30N 40°37' W 074°03'0 0.1
2017-Oct-19 21:01N 40°37' W 074°03'0 0.6
2017-Oct-19 20:30N 40°38' W 074°03'3 6.8
2017-Oct-19 20:00N 40°38' W 074°08'0 0.0
2017-Oct-19 19:30N 40°38' W 074°08'0 0.0
2017-Oct-19 19:00N 40°38' W 074°08'0 0.0
2017-Oct-19 18:30N 40°38' W 074°08'0 0.0
2017-Oct-19 18:00N 40°38' W 074°08'0 0.0
2017-Oct-19 17:30N 40°38' W 074°08'0 0.0
2017-Oct-19 17:00N 40°38' W 074°08'0 0.0
2017-Oct-19 16:30N 40°38' W 074°08'0 0.0
2017-Oct-19 16:00N 40°38' W 074°08'0 0.0
2017-Oct-19 15:30N 40°38' W 074°08'0 0.0
2017-Oct-19 15:00N 40°38' W 074°08'0 0.0
2017-Oct-19 14:30N 40°38' W 074°08'0 0.0
2017-Oct-19 14:00N 40°38' W 074°08'0 0.0
2017-Oct-19 13:30N 40°38' W 074°08'0 0.0
2017-Oct-19 13:00N 40°38' W 074°08'0 0.0
2017-Oct-19 12:30N 40°38' W 074°08'0 0.0
2017-Oct-19 12:00N 40°38' W 074°08'0 0.0
2017-Oct-19 11:30N 40°38' W 074°08'0 0.0
2017-Oct-19 11:00N 40°38' W 074°08'0 0.0
2017-Oct-19 10:30N 40°38' W 074°08'0 0.0
2017-Oct-19 10:00N 40°38' W 074°08'0 0.0
2017-Oct-19 09:30N 40°38' W 074°08'510.0
2017-Oct-19 09:00N 40°41' W 074°02'5 9.1
2017-Oct-19 08:30N 40°44' W 073°58'4 8.0
2017-Oct-19 08:00N 40°47' W 073°55'0 0.1
2017-Oct-19 07:30N 40°47' W 073°55'4 7.2
2017-Oct-19 07:00N 40°45' W 073°58'4 7.7
2017-Oct-19 06:30N 40°41' W 074°01'4 8.2
2017-Oct-19 06:01N 40°39' W 074°05'2 4.0
2017-Oct-19 05:28N 40°38' W 074°08'0 0.0
2017-Oct-19 04:58N 40°38' W 074°08'0 0.0
2017-Oct-19 04:28N 40°38' W 074°08'0 0.0
2017-Oct-19 03:59N 40°38' W 074°08'3 6.2
2017-Oct-19 03:30N 40°41' W 074°08'0 0.9
2017-Oct-19 02:59N 40°41' W 074°08'0 0.6
2017-Oct-19 02:30N 40°41' W 074°08'1 1.5
2017-Oct-19 02:01N 40°42' W 074°09'0 0.1
2017-Oct-19 01:30N 40°42' W 074°09'0 0.0
2017-Oct-19 01:00N 40°42' W 074°09'0 0.1
2017-Oct-19 00:31N 40°42' W 074°09'1 1.4
2017-Oct-19 00:00N 40°41' W 074°08'1 1.3
2017-Oct-18 23:30N 40°42' W 074°09'0 0.0
2017-Oct-18 22:57N 40°42' W 074°09'0 0.0
2017-Oct-18 22:30N 40°42' W 074°09'0 0.0
2017-Oct-18 22:00N 40°42' W 074°09'1 3.0
2017-Oct-18 21:30N 40°43' W 074°07'0 0.1
2017-Oct-18 21:00N 40°43' W 074°07'2 4.5
2017-Oct-18 20:30N 40°41' W 074°08'2 3.8
2017-Oct-18 20:00N 40°39' W 074°08'0 0.5
2017-Oct-18 19:30N 40°38' W 074°08'0 0.0
2017-Oct-18 19:00N 40°38' W 074°08'0 0.0
2017-Oct-18 18:30N 40°38' W 074°08'0 0.0
2017-Oct-18 18:00N 40°38' W 074°08'3 5.9
2017-Oct-18 17:30N 40°39' W 074°04'0 0.8
2017-Oct-18 17:00N 40°39' W 074°04'3 5.7
2017-Oct-18 16:30N 40°38' W 074°08'0 0.0
2017-Oct-18 16:00N 40°38' W 074°08'0 0.0
2017-Oct-18 15:30N 40°38' W 074°08'0 0.0
2017-Oct-18 15:00N 40°38' W 074°08'0 0.0
2017-Oct-18 14:00N 40°38' W 074°08'0 0.0
2017-Oct-18 13:30N 40°38' W 074°08'0 0.0
2017-Oct-18 13:00N 40°38' W 074°08'0 0.0
2017-Oct-18 12:30N 40°38' W 074°08'1 2.6
2017-Oct-18 12:00N 40°40' W 074°09'2 4.4
2017-Oct-18 11:30N 40°42' W 074°08'0 0.1
2017-Oct-18 11:00N 40°42' W 074°08'2 4.3
2017-Oct-18 10:30N 40°40' W 074°09'1 3.0
2017-Oct-18 10:01N 40°39' W 074°07'2 4.8
2017-Oct-18 09:30N 40°39' W 074°04'2 4.3
2017-Oct-18 09:00N 40°39' W 074°06'1 2.2
2017-Oct-18 08:30N 40°38' W 074°08'0 0.0
2017-Oct-18 08:00N 40°38' W 074°08'0 0.0
2017-Oct-18 07:30N 40°38' W 074°08'0 0.0
2017-Oct-18 07:00N 40°38' W 074°08'0 0.0
2017-Oct-18 06:30N 40°38' W 074°08'0 0.0
2017-Oct-18 06:00N 40°38' W 074°08'0 0.0
2017-Oct-18 05:30N 40°38' W 074°08'0 0.0
2017-Oct-18 05:00N 40°38' W 074°08'0 0.0
2017-Oct-18 04:30N 40°38' W 074°08'0 0.0
2017-Oct-18 04:00N 40°38' W 074°08'0 0.0
2017-Oct-18 03:30N 40°38' W 074°08'0 0.0
2017-Oct-18 03:00N 40°38' W 074°08'0 0.0
2017-Oct-18 02:30N 40°38' W 074°08'0 0.0
2017-Oct-18 02:00N 40°38' W 074°08'0 0.0
2017-Oct-18 01:30N 40°38' W 074°08'0 0.0
2017-Oct-18 01:00N 40°38' W 074°08'0 0.0
2017-Oct-18 00:30N 40°38' W 074°08'0 0.0
2017-Oct-18 00:00N 40°38' W 074°08'0 0.0
2017-Oct-17 23:30N 40°38' W 074°08'0 0.0
2017-Oct-17 23:00N 40°38' W 074°08'0 0.0
2017-Oct-17 22:30N 40°38' W 074°08'0 0.0
2017-Oct-17 22:00N 40°38' W 074°08'0 0.0
2017-Oct-17 21:30N 40°38' W 074°08'0 0.0
2017-Oct-17 21:00N 40°38' W 074°08'0 0.0
2017-Oct-17 20:30N 40°38' W 074°08'0 0.0
2017-Oct-17 20:00N 40°38' W 074°08'0 0.0
2017-Oct-17 19:30N 40°38' W 074°08'0 0.0
2017-Oct-17 19:00N 40°38' W 074°08'0 0.0
2017-Oct-17 18:30N 40°38' W 074°08'0 0.0
2017-Oct-17 18:00N 40°38' W 074°08'0 0.0
2017-Oct-17 17:30N 40°38' W 074°08'0 0.0
2017-Oct-17 17:00N 40°38' W 074°08'0 0.0
2017-Oct-17 16:30N 40°38' W 074°08'0 0.0
2017-Oct-17 16:00N 40°38' W 074°08'2 4.3
2017-Oct-17 15:30N 40°39' W 074°05'2 4.2
2017-Oct-17 14:58N 40°40' W 074°02'0 0.0
2017-Oct-17 14:28N 40°40' W 074°02'0 0.0
2017-Oct-17 13:58N 40°40' W 074°02'0 0.1
2017-Oct-17 13:28N 40°40' W 074°02'1 1.2
2017-Oct-17 13:00N 40°41' W 074°02'4 7.1
2017-Oct-17 12:30N 40°43' W 073°58'3 5.9
2017-Oct-17 12:00N 40°46' W 073°57'0 0.1
2017-Oct-17 11:30N 40°46' W 073°57'611.1
2017-Oct-17 11:00N 40°41' W 074°01'2 4.6
2017-Oct-17 10:30N 40°40' W 074°04'1 2.0
2017-Oct-17 10:00N 40°39' W 074°03'1 2.7
2017-Oct-17 09:30N 40°40' W 074°04'0 0.0
2017-Oct-17 09:00N 40°40' W 074°04'0 0.0
2017-Oct-17 08:30N 40°40' W 074°04'1 1.9
2017-Oct-17 08:01N 40°39' W 074°05'2 4.5
2017-Oct-17 07:30N 40°38' W 074°08'0 0.0
2017-Oct-17 07:00N 40°38' W 074°08'0 0.0
2017-Oct-17 06:30N 40°38' W 074°08'0 0.0
2017-Oct-17 06:00N 40°38' W 074°08'0 0.0
2017-Oct-17 05:30N 40°38' W 074°08'0 0.0
2017-Oct-17 05:00N 40°38' W 074°08'0 0.0
2017-Oct-17 04:30N 40°38' W 074°08'0 0.0
2017-Oct-17 04:00N 40°38' W 074°08'0 0.0
2017-Oct-17 03:30N 40°38' W 074°08'0 0.0
2017-Oct-17 03:00N 40°38' W 074°08'0 0.0
2017-Oct-17 02:30N 40°38' W 074°08'3 6.7
2017-Oct-17 02:01N 40°38' W 074°12'3 1.6
2017-Oct-17 00:21N 40°35' W 074°12'3 1.7
2017-Oct-16 22:27N 40°33' W 074°15'4 9.0
2017-Oct-16 22:00N 40°36' W 074°12'4 7.4
2017-Oct-16 21:30N 40°39' W 074°09'1 1.3
2017-Oct-16 20:59N 40°38' W 074°08'0 0.0
2017-Oct-16 20:26N 40°38' W 074°08'0 0.0
2017-Oct-16 19:59N 40°38' W 074°08'0 0.0
2017-Oct-16 19:29N 40°38' W 074°08'0 0.0
2017-Oct-16 18:59N 40°38' W 074°08'0 0.0
2017-Oct-16 18:26N 40°38' W 074°08'0 0.0
2017-Oct-16 17:50N 40°38' W 074°08'0 0.0
2017-Oct-16 17:14N 40°38' W 074°08'0 0.0
2017-Oct-16 16:50N 40°38' W 074°08'0 0.0
2017-Oct-16 16:26N 40°38' W 074°08'1 2.0
2017-Oct-16 15:56N 40°39' W 074°07'0 0.0
2017-Oct-16 15:26N 40°39' W 074°07'0 0.0
2017-Oct-16 14:38N 40°39' W 074°07'1 1.2
2017-Oct-16 14:01N 40°39' W 074°06'3 6.7
2017-Oct-16 13:30N 40°41' W 074°02'5 9.8
2017-Oct-16 13:00N 40°45' W 073°58'1 2.3
2017-Oct-16 12:30N 40°46' W 073°57'0 0.2
2017-Oct-16 12:00N 40°46' W 073°57'2 3.1
2017-Oct-16 11:30N 40°44' W 073°58'3 6.1
2017-Oct-16 11:00N 40°42' W 074°00'2 4.4
2017-Oct-16 10:30N 40°40' W 074°02'1 1.8
2017-Oct-16 09:59N 40°39' W 074°02'0 0.1
2017-Oct-16 09:29N 40°39' W 074°02'0 0.0
2017-Oct-16 08:59N 40°39' W 074°02'0 0.1
2017-Oct-16 08:29N 40°39' W 074°02'0 0.0
2017-Oct-16 07:59N 40°39' W 074°02'0 0.2
2017-Oct-16 07:30N 40°39' W 074°02'1 2.1
2017-Oct-16 07:00N 40°40' W 074°02'3 6.7
2017-Oct-16 06:30N 40°43' W 073°59'4 7.0
2017-Oct-16 06:00N 40°46' W 073°57'3 5.3
2017-Oct-16 05:30N 40°48' W 073°55'2 4.2
2017-Oct-16 05:00N 40°48' W 073°52'2 4.3
2017-Oct-16 04:29N 40°48' W 073°49'2 2.9
2017-Oct-16 03:50N 40°49' W 073°47'1 2.1
2017-Oct-16 03:28N 40°50' W 073°47'52 2.2
2017-Oct-15 04:06N 41°00' W 072°40'0 1.2
2017-Oct-15 03:44N 41°00' W 072°39'34 9.2
2017-Oct-15 00:03N 40°60' W 073°24'1 9.1
2017-Oct-14 23:58N 40°59' W 073°25'4 8.4
2017-Oct-14 23:26N 40°58' W 073°30'9 8.6
2017-Oct-14 22:20N 40°54' W 073°42'3 8.6
2017-Oct-14 22:00N 40°52' W 073°45'4 8.2
2017-Oct-14 21:30N 40°48' W 073°47'5 8.8
2017-Oct-14 20:54N 40°48' W 073°54'411.0
2017-Oct-14 20:30N 40°45' W 073°58'5 9.7
2017-Oct-14 20:00N 40°41' W 074°02'2 4.0
2017-Oct-14 19:30N 40°40' W 074°04'0 0.5
2017-Oct-14 19:00N 40°40' W 074°04'3 6.0
2017-Oct-14 18:30N 40°38' W 074°08'0 0.0
2017-Oct-14 18:00N 40°38' W 074°08'0 0.1
2017-Oct-14 17:30N 40°38' W 074°08'4 7.6
2017-Oct-14 17:00N 40°37' W 074°12'4 7.2
2017-Oct-14 16:29N 40°33' W 074°14'0 0.0
2017-Oct-14 16:00N 40°33' W 074°14'1 2.0
2017-Oct-14 15:26N 40°34' W 074°13'4 9.5
2017-Oct-14 15:00N 40°38' W 074°12'3 6.6
2017-Oct-14 14:30N 40°38' W 074°08'0 0.0
2017-Oct-14 14:00N 40°38' W 074°08'2 3.8
2017-Oct-14 13:30N 40°39' W 074°10'2 3.5
2017-Oct-14 12:58N 40°38' W 074°12'1 1.6
2017-Oct-14 12:30N 40°38' W 074°12'3 3.1
2017-Oct-14 11:33N 40°39' W 074°08'0 6.4
2017-Oct-14 11:29N 40°39' W 074°07'4 7.6
2017-Oct-14 11:00N 40°40' W 074°03'5 9.6
2017-Oct-14 10:30N 40°43' W 073°58'3 5.0
2017-Oct-14 09:58N 40°46' W 073°57'0 0.0
2017-Oct-14 09:30N 40°46' W 073°57'0 0.0
2017-Oct-14 09:00N 40°46' W 073°57'0 0.1
2017-Oct-14 08:30N 40°46' W 073°57'0 0.0
2017-Oct-14 07:59N 40°46' W 073°57'0 0.0
2017-Oct-14 07:30N 40°46' W 073°57'0 0.0
2017-Oct-14 07:00N 40°46' W 073°57'0 0.0
2017-Oct-14 06:29N 40°46' W 073°57'0 0.0
2017-Oct-14 06:00N 40°46' W 073°57'0 0.1
2017-Oct-14 05:30N 40°46' W 073°57'0 0.0
2017-Oct-14 05:00N 40°46' W 073°57'0 0.1
2017-Oct-14 04:29N 40°46' W 073°57'4 8.1
2017-Oct-14 04:00N 40°42' W 073°60'3 6.3
2017-Oct-14 03:30N 40°45' W 073°58'4 7.1
2017-Oct-14 03:00N 40°48' W 073°55'1 2.8
2017-Oct-14 02:29N 40°48' W 073°53'1 1.9
2017-Oct-14 01:59N 40°48' W 073°54'4 7.7
2017-Oct-14 01:30N 40°45' W 073°57'4 7.1
2017-Oct-14 01:00N 40°42' W 073°60'4 9.2
2017-Oct-14 00:30N 40°39' W 074°04'3 1.4
2017-Oct-13 22:30N 40°38' W 074°08'3 6.9
2017-Oct-13 22:00N 40°37' W 074°12'2 1.8
2017-Oct-13 20:46N 40°35' W 074°12'1 1.8
2017-Oct-13 20:29N 40°35' W 074°13'3 2.0
2017-Oct-13 19:04N 40°33' W 074°15'2 9.4
2017-Oct-13 18:49N 40°34' W 074°13'2 5.2
2017-Oct-13 18:30N 40°36' W 074°12'0 0.0
2017-Oct-13 18:00N 40°36' W 074°12'0 0.0
2017-Oct-13 17:30N 40°36' W 074°12'0 0.0
2017-Oct-13 17:00N 40°36' W 074°12'0 0.0
2017-Oct-13 16:30N 40°36' W 074°12'3 5.5
2017-Oct-13 16:00N 40°33' W 074°14'4 1.9
2017-Oct-13 13:53N 40°29' W 074°15'3 6.2
2017-Oct-13 13:23N 40°33' W 074°15'4 8.8
2017-Oct-13 12:59N 40°35' W 074°12'4 8.1
2017-Oct-13 12:30N 40°39' W 074°10'2 2.5
2017-Oct-13 11:53N 40°38' W 074°08'0 0.0
2017-Oct-13 11:29N 40°38' W 074°08'0 0.0
2017-Oct-13 10:47N 40°38' W 074°08'0 0.0
2017-Oct-13 10:23N 40°38' W 074°08'0 0.0
2017-Oct-13 09:59N 40°38' W 074°08'2 4.0
2017-Oct-13 09:30N 40°39' W 074°05'1 2.5
2017-Oct-13 08:59N 40°40' W 074°05'2 4.6
2017-Oct-13 08:30N 40°39' W 074°07'1 1.5
2017-Oct-13 08:00N 40°38' W 074°08'0 0.0
2017-Oct-13 07:30N 40°38' W 074°08'0 0.0
2017-Oct-13 07:00N 40°38' W 074°08'0 0.0
2017-Oct-13 06:30N 40°38' W 074°08'0 0.0
2017-Oct-13 06:00N 40°38' W 074°08'0 0.0
2017-Oct-13 05:30N 40°38' W 074°08'0 0.0
2017-Oct-13 05:00N 40°38' W 074°08'0 0.0
2017-Oct-13 04:30N 40°38' W 074°08'0 0.0
2017-Oct-13 04:00N 40°38' W 074°08'0 0.0
2017-Oct-13 03:30N 40°38' W 074°08'1 2.1
2017-Oct-13 03:00N 40°39' W 074°09'2 4.1
2017-Oct-13 02:30N 40°41' W 074°09'0 0.1
2017-Oct-13 02:00N 40°41' W 074°09'1 1.6
2017-Oct-13 01:30N 40°41' W 074°08'0 0.0
2017-Oct-13 01:00N 40°41' W 074°08'0 0.7
2017-Oct-13 00:20N 40°42' W 074°09'0 0.1
2017-Oct-13 00:00N 40°42' W 074°09'4 7.8
2017-Oct-12 23:30N 40°39' W 074°11'2 4.2
2017-Oct-12 23:00N 40°37' W 074°12'0 0.0
2017-Oct-12 22:29N 40°37' W 074°12'0 0.0
2017-Oct-12 21:59N 40°37' W 074°12'0 0.7
2017-Oct-12 21:29N 40°37' W 074°12'2 4.5
2017-Oct-12 21:00N 40°39' W 074°11'2 4.4
2017-Oct-12 20:29N 40°38' W 074°08'0 0.0
2017-Oct-12 19:38N 40°38' W 074°08'0 0.0
2017-Oct-12 19:23N 40°38' W 074°08'0 0.0
2017-Oct-12 18:56N 40°38' W 074°08'0 0.0
2017-Oct-12 18:29N 40°38' W 074°08'0 0.0
2017-Oct-12 17:59N 40°38' W 074°08'0 0.0
2017-Oct-12 17:29N 40°38' W 074°08'0 0.0
2017-Oct-12 16:56N 40°38' W 074°08'0 0.0
2017-Oct-12 16:29N 40°38' W 074°08'0 0.0
2017-Oct-12 15:59N 40°38' W 074°08'0 0.0
2017-Oct-12 15:29N 40°38' W 074°08'0 0.0
2017-Oct-12 14:59N 40°38' W 074°08'0 0.0
2017-Oct-12 14:29N 40°38' W 074°08'0 0.0
2017-Oct-12 13:56N 40°38' W 074°08'0 0.0
2017-Oct-12 13:29N 40°38' W 074°08'0 0.0
2017-Oct-12 12:59N 40°38' W 074°08'0 0.0
2017-Oct-12 12:29N 40°38' W 074°08'0 0.0
2017-Oct-12 11:53N 40°38' W 074°08'0 0.0
2017-Oct-12 11:29N 40°38' W 074°08'0 0.0
2017-Oct-12 10:59N 40°38' W 074°08'2 4.8
2017-Oct-12 10:30N 40°41' W 074°09'1 1.4
2017-Oct-12 10:00N 40°41' W 074°09'1 2.7
2017-Oct-12 09:30N 40°40' W 074°08'2 3.3
2017-Oct-12 09:00N 40°39' W 074°07'3 5.8
2017-Oct-12 08:29N 40°38' W 074°03'3 5.6
2017-Oct-12 08:00N 40°39' W 074°07'1 0.3
2017-Oct-12 05:34N 40°38' W 074°08'0 0.0
2017-Oct-12 05:16N 40°38' W 074°08'0 0.0
2017-Oct-12 04:52N 40°38' W 074°08'0 0.0
2017-Oct-12 04:25N 40°38' W 074°08'0 0.0
2017-Oct-12 03:52N 40°38' W 074°08'0 0.0
2017-Oct-12 03:28N 40°38' W 074°08'0 0.0
2017-Oct-12 02:58N 40°38' W 074°08'0 0.0
2017-Oct-12 02:28N 40°38' W 074°08'0 0.0
2017-Oct-12 01:52N 40°38' W 074°08'0 0.0
2017-Oct-12 01:28N 40°38' W 074°08'0 0.0
2017-Oct-12 00:55N 40°38' W 074°08'0 0.0
2017-Oct-12 00:28N 40°38' W 074°08'0 0.0
2017-Oct-11 23:58N 40°38' W 074°08'0 0.0
2017-Oct-11 23:25N 40°38' W 074°08'0 0.0
2017-Oct-11 22:58N 40°38' W 074°08'1 1.8
2017-Oct-11 22:30N 40°39' W 074°09'2 3.5
2017-Oct-11 21:56N 40°38' W 074°11'0 0.1
2017-Oct-11 21:28N 40°38' W 074°12'0 0.0
2017-Oct-11 21:00N 40°38' W 074°12'0 0.2
2017-Oct-11 20:30N 40°38' W 074°11'2 4.5
2017-Oct-11 20:00N 40°39' W 074°09'1 2.8
2017-Oct-11 19:30N 40°41' W 074°09'0 0.0
2017-Oct-11 19:00N 40°41' W 074°09'0 0.4
2017-Oct-11 18:30N 40°41' W 074°09'0 0.0
2017-Oct-11 18:00N 40°41' W 074°09'0 0.0
2017-Oct-11 17:30N 40°41' W 074°09'0 0.0
2017-Oct-11 17:00N 40°41' W 074°09'4 0.2
2017-Oct-11 00:00N 40°40' W 074°04'0 0.0
2017-Oct-10 23:30N 40°40' W 074°04'0 0.0
2017-Oct-10 23:00N 40°40' W 074°04'0 0.0
2017-Oct-10 22:30N 40°40' W 074°04'0 0.0
2017-Oct-10 22:00N 40°40' W 074°04'0 0.0
2017-Oct-10 21:30N 40°40' W 074°04'0 0.0
2017-Oct-10 21:00N 40°40' W 074°04'0 0.0
2017-Oct-10 20:30N 40°40' W 074°04'0 0.0
2017-Oct-10 20:00N 40°40' W 074°04'0 0.1
2017-Oct-10 19:30N 40°40' W 074°04'1 2.8
2017-Oct-10 19:00N 40°40' W 074°02'0 0.2
2017-Oct-10 18:31N 40°40' W 074°02'4 8.4
2017-Oct-10 17:59N 40°38' W 074°08'0 0.0
2017-Oct-10 17:29N 40°38' W 074°08'0 0.0
2017-Oct-10 16:56N 40°38' W 074°08'0 0.0
2017-Oct-10 16:29N 40°38' W 074°08'0 0.0
2017-Oct-10 15:53N 40°38' W 074°08'0 0.0
2017-Oct-10 15:17N 40°38' W 074°08'0 0.0
2017-Oct-10 14:59N 40°38' W 074°08'0 0.0
2017-Oct-10 13:59N 40°38' W 074°08'0 0.0
2017-Oct-10 13:29N 40°38' W 074°08'0 0.0
2017-Oct-10 12:59N 40°38' W 074°08'0 0.0
2017-Oct-10 12:29N 40°38' W 074°08'0 0.0
2017-Oct-10 11:59N 40°38' W 074°08'0 0.0
2017-Oct-10 11:29N 40°38' W 074°08'0 0.0
2017-Oct-10 11:01N 40°38' W 074°08'2 4.5
2017-Oct-10 10:30N 40°41' W 074°08'0 0.3
2017-Oct-10 10:00N 40°40' W 074°08'0 0.4
2017-Oct-10 09:31N 40°41' W 074°09'2 4.2
2017-Oct-10 09:01N 40°39' W 074°08'0 0.6
2017-Oct-10 08:30N 40°38' W 074°08'0 0.0
2017-Oct-10 08:00N 40°38' W 074°08'0 0.0
2017-Oct-10 07:30N 40°38' W 074°08'0 0.0
2017-Oct-10 07:00N 40°38' W 074°08'0 0.0
2017-Oct-10 06:30N 40°38' W 074°08'0 0.0
2017-Oct-10 06:00N 40°38' W 074°08'0 0.0
2017-Oct-10 05:30N 40°38' W 074°08'0 0.0
2017-Oct-10 05:00N 40°38' W 074°08'0 0.0
2017-Oct-10 04:30N 40°38' W 074°08'0 0.0
2017-Oct-10 04:00N 40°38' W 074°08'0 0.0
2017-Oct-10 03:30N 40°38' W 074°08'  
Track history (hours):
 
Tides and Currents Weather Stations Pressure Air Temp Water Temp Dewpoint Dewpoint Depression Visibility Wind Speed Wind Dir Waves Ship Positions

Kimberly Turecamo

Owner: Moran Towing Corporation, New Canaan, CT. More information available from US FCC via Universal Licensing System and Coast Guard Vessel Documentation Center.

Last reported at 2017-Oct-20 03:30 UTC. Time now 2017-Oct-20 03:39 UTC.
Position N 40°39' W 074°05'.

Length 120 m; draft 5 m.

Type: . MMSI: 367061980.

Date/timePositionNaut miles runAvg speedWind from/ knotsBaromVisibWave heightAir tempDewpointWater temp
2017-Oct-20 03:30N 40°39' W 074°05'2 4.5
2017-Oct-20 03:01N 40°40' W 074°02'0 0.1
2017-Oct-20 02:30N 40°40' W 074°02'0 0.0
2017-Oct-20 02:00N 40°40' W 074°02'0 0.0
2017-Oct-20 01:30N 40°40' W 074°02'0 0.0
2017-Oct-20 01:00N 40°40' W 074°02'0 0.0
2017-Oct-20 00:30N 40°40' W 074°02'0 0.0
2017-Oct-20 00:00N 40°40' W 074°02'0 0.0
2017-Oct-19 23:30N 40°40' W 074°02'0 0.0
2017-Oct-19 23:01N 40°40' W 074°02'0 0.1
2017-Oct-19 22:30N 40°40' W 074°02'3 5.6
2017-Oct-19 22:00N 40°38' W 074°03'0 0.4
2017-Oct-19 21:30N 40°37' W 074°03'0 0.1
2017-Oct-19 21:01N 40°37' W 074°03'0 0.6
2017-Oct-19 20:30N 40°38' W 074°03'3 6.8
2017-Oct-19 20:00N 40°38' W 074°08'0 0.0
2017-Oct-19 19:30N 40°38' W 074°08'0 0.0
2017-Oct-19 19:00N 40°38' W 074°08'0 0.0
2017-Oct-19 18:30N 40°38' W 074°08'0 0.0
2017-Oct-19 18:00N 40°38' W 074°08'0 0.0
2017-Oct-19 17:30N 40°38' W 074°08'0 0.0
2017-Oct-19 17:00N 40°38' W 074°08'0 0.0
2017-Oct-19 16:30N 40°38' W 074°08'0 0.0
2017-Oct-19 16:00N 40°38' W 074°08'0 0.0
2017-Oct-19 15:30N 40°38' W 074°08'0 0.0
2017-Oct-19 15:00N 40°38' W 074°08'0 0.0
2017-Oct-19 14:30N 40°38' W 074°08'0 0.0
2017-Oct-19 14:00N 40°38' W 074°08'0 0.0
2017-Oct-19 13:30N 40°38' W 074°08'0 0.0
2017-Oct-19 13:00N 40°38' W 074°08'0 0.0
2017-Oct-19 12:30N 40°38' W 074°08'0 0.0
2017-Oct-19 12:00N 40°38' W 074°08'0 0.0
2017-Oct-19 11:30N 40°38' W 074°08'0 0.0
2017-Oct-19 11:00N 40°38' W 074°08'0 0.0
2017-Oct-19 10:30N 40°38' W 074°08'0 0.0
2017-Oct-19 10:00N 40°38' W 074°08'0 0.0
2017-Oct-19 09:30N 40°38' W 074°08'510.0
2017-Oct-19 09:00N 40°41' W 074°02'5 9.1
2017-Oct-19 08:30N 40°44' W 073°58'4 8.0
2017-Oct-19 08:00N 40°47' W 073°55'0 0.1
2017-Oct-19 07:30N 40°47' W 073°55'4 7.2
2017-Oct-19 07:00N 40°45' W 073°58'4 7.7
2017-Oct-19 06:30N 40°41' W 074°01'4 8.2
2017-Oct-19 06:01N 40°39' W 074°05'2 4.0
2017-Oct-19 05:28N 40°38' W 074°08'0 0.0
2017-Oct-19 04:58N 40°38' W 074°08'0 0.0
2017-Oct-19 04:28N 40°38' W 074°08'0 0.0
2017-Oct-19 03:59N 40°38' W 074°08'3 6.2
2017-Oct-19 03:30N 40°41' W 074°08'0 0.9
2017-Oct-19 02:59N 40°41' W 074°08'0 0.6
2017-Oct-19 02:30N 40°41' W 074°08'1 1.5
2017-Oct-19 02:01N 40°42' W 074°09'0 0.1
2017-Oct-19 01:30N 40°42' W 074°09'0 0.0
2017-Oct-19 01:00N 40°42' W 074°09'0 0.1
2017-Oct-19 00:31N 40°42' W 074°09'1 1.4
2017-Oct-19 00:00N 40°41' W 074°08'1 1.3
2017-Oct-18 23:30N 40°42' W 074°09'0 0.0
2017-Oct-18 22:57N 40°42' W 074°09'0 0.0
2017-Oct-18 22:30N 40°42' W 074°09'0 0.0
2017-Oct-18 22:00N 40°42' W 074°09'1 3.0
2017-Oct-18 21:30N 40°43' W 074°07'0 0.1
2017-Oct-18 21:00N 40°43' W 074°07'2 4.5
2017-Oct-18 20:30N 40°41' W 074°08'2 3.8
2017-Oct-18 20:00N 40°39' W 074°08'0 0.5
2017-Oct-18 19:30N 40°38' W 074°08'0 0.0
2017-Oct-18 19:00N 40°38' W 074°08'0 0.0
2017-Oct-18 18:30N 40°38' W 074°08'0 0.0
2017-Oct-18 18:00N 40°38' W 074°08'3 5.9
2017-Oct-18 17:30N 40°39' W 074°04'0 0.8
2017-Oct-18 17:00N 40°39' W 074°04'3 5.7
2017-Oct-18 16:30N 40°38' W 074°08'0 0.0
2017-Oct-18 16:00N 40°38' W 074°08'0 0.0
2017-Oct-18 15:30N 40°38' W 074°08'0 0.0
2017-Oct-18 15:00N 40°38' W 074°08'0 0.0
2017-Oct-18 14:00N 40°38' W 074°08'0 0.0
2017-Oct-18 13:30N 40°38' W 074°08'0 0.0
2017-Oct-18 13:00N 40°38' W 074°08'0 0.0
2017-Oct-18 12:30N 40°38' W 074°08'1 2.6
2017-Oct-18 12:00N 40°40' W 074°09'2 4.4
2017-Oct-18 11:30N 40°42' W 074°08'0 0.1
2017-Oct-18 11:00N 40°42' W 074°08'2 4.3
2017-Oct-18 10:30N 40°40' W 074°09'1 3.0
2017-Oct-18 10:01N 40°39' W 074°07'2 4.8
2017-Oct-18 09:30N 40°39' W 074°04'2 4.3
2017-Oct-18 09:00N 40°39' W 074°06'1 2.2
2017-Oct-18 08:30N 40°38' W 074°08'0 0.0
2017-Oct-18 08:00N 40°38' W 074°08'0 0.0
2017-Oct-18 07:30N 40°38' W 074°08'0 0.0
2017-Oct-18 07:00N 40°38' W 074°08'0 0.0
2017-Oct-18 06:30N 40°38' W 074°08'0 0.0
2017-Oct-18 06:00N 40°38' W 074°08'0 0.0
2017-Oct-18 05:30N 40°38' W 074°08'0 0.0
2017-Oct-18 05:00N 40°38' W 074°08'0 0.0
2017-Oct-18 04:30N 40°38' W 074°08'0 0.0
2017-Oct-18 04:00N 40°38' W 074°08'0 0.0
2017-Oct-18 03:30N 40°38' W 074°08'0 0.0
2017-Oct-18 03:00N 40°38' W 074°08'0 0.0
2017-Oct-18 02:30N 40°38' W 074°08'0 0.0
2017-Oct-18 02:00N 40°38' W 074°08'0 0.0
2017-Oct-18 01:30N 40°38' W 074°08'0 0.0
2017-Oct-18 01:00N 40°38' W 074°08'0 0.0
2017-Oct-18 00:30N 40°38' W 074°08'0 0.0
2017-Oct-18 00:00N 40°38' W 074°08'0 0.0
2017-Oct-17 23:30N 40°38' W 074°08'0 0.0
2017-Oct-17 23:00N 40°38' W 074°08'0 0.0
2017-Oct-17 22:30N 40°38' W 074°08'0 0.0
2017-Oct-17 22:00N 40°38' W 074°08'0 0.0
2017-Oct-17 21:30N 40°38' W 074°08'0 0.0
2017-Oct-17 21:00N 40°38' W 074°08'0 0.0
2017-Oct-17 20:30N 40°38' W 074°08'0 0.0
2017-Oct-17 20:00N 40°38' W 074°08'0 0.0
2017-Oct-17 19:30N 40°38' W 074°08'0 0.0
2017-Oct-17 19:00N 40°38' W 074°08'0 0.0
2017-Oct-17 18:30N 40°38' W 074°08'0 0.0
2017-Oct-17 18:00N 40°38' W 074°08'0 0.0
2017-Oct-17 17:30N 40°38' W 074°08'0 0.0
2017-Oct-17 17:00N 40°38' W 074°08'0 0.0
2017-Oct-17 16:30N 40°38' W 074°08'0 0.0
2017-Oct-17 16:00N 40°38' W 074°08'2 4.3
2017-Oct-17 15:30N 40°39' W 074°05'2 4.2
2017-Oct-17 14:58N 40°40' W 074°02'0 0.0
2017-Oct-17 14:28N 40°40' W 074°02'0 0.0
2017-Oct-17 13:58N 40°40' W 074°02'0 0.1
2017-Oct-17 13:28N 40°40' W 074°02'1 1.2
2017-Oct-17 13:00N 40°41' W 074°02'4 7.1
2017-Oct-17 12:30N 40°43' W 073°58'3 5.9
2017-Oct-17 12:00N 40°46' W 073°57'0 0.1
2017-Oct-17 11:30N 40°46' W 073°57'611.1
2017-Oct-17 11:00N 40°41' W 074°01'2 4.6
2017-Oct-17 10:30N 40°40' W 074°04'1 2.0
2017-Oct-17 10:00N 40°39' W 074°03'1 2.7
2017-Oct-17 09:30N 40°40' W 074°04'0 0.0
2017-Oct-17 09:00N 40°40' W 074°04'0 0.0
2017-Oct-17 08:30N 40°40' W 074°04'1 1.9
2017-Oct-17 08:01N 40°39' W 074°05'2 4.5
2017-Oct-17 07:30N 40°38' W 074°08'0 0.0
2017-Oct-17 07:00N 40°38' W 074°08'0 0.0
2017-Oct-17 06:30N 40°38' W 074°08'0 0.0
2017-Oct-17 06:00N 40°38' W 074°08'0 0.0
2017-Oct-17 05:30N 40°38' W 074°08'0 0.0
2017-Oct-17 05:00N 40°38' W 074°08'0 0.0
2017-Oct-17 04:30N 40°38' W 074°08'0 0.0
2017-Oct-17 04:00N 40°38' W 074°08'0 0.0
2017-Oct-17 03:30N 40°38' W 074°08'0 0.0
2017-Oct-17 03:00N 40°38' W 074°08'0 0.0
2017-Oct-17 02:30N 40°38' W 074°08'3 6.7
2017-Oct-17 02:01N 40°38' W 074°12'3 1.6
2017-Oct-17 00:21N 40°35' W 074°12'3 1.7
2017-Oct-16 22:27N 40°33' W 074°15'4 9.0
2017-Oct-16 22:00N 40°36' W 074°12'4 7.4
2017-Oct-16 21:30N 40°39' W 074°09'1 1.3
2017-Oct-16 20:59N 40°38' W 074°08'0 0.0
2017-Oct-16 20:26N 40°38' W 074°08'0 0.0
2017-Oct-16 19:59N 40°38' W 074°08'0 0.0
2017-Oct-16 19:29N 40°38' W 074°08'0 0.0
2017-Oct-16 18:59N 40°38' W 074°08'0 0.0
2017-Oct-16 18:26N 40°38' W 074°08'0 0.0
2017-Oct-16 17:50N 40°38' W 074°08'0 0.0
2017-Oct-16 17:14N 40°38' W 074°08'0 0.0
2017-Oct-16 16:50N 40°38' W 074°08'0 0.0
2017-Oct-16 16:26N 40°38' W 074°08'1 2.0
2017-Oct-16 15:56N 40°39' W 074°07'0 0.0
2017-Oct-16 15:26N 40°39' W 074°07'0 0.0
2017-Oct-16 14:38N 40°39' W 074°07'1 1.2
2017-Oct-16 14:01N 40°39' W 074°06'3 6.7
2017-Oct-16 13:30N 40°41' W 074°02'5 9.8
2017-Oct-16 13:00N 40°45' W 073°58'1 2.3
2017-Oct-16 12:30N 40°46' W 073°57'0 0.2
2017-Oct-16 12:00N 40°46' W 073°57'2 3.1
2017-Oct-16 11:30N 40°44' W 073°58'3 6.1
2017-Oct-16 11:00N 40°42' W 074°00'2 4.4
2017-Oct-16 10:30N 40°40' W 074°02'1 1.8
2017-Oct-16 09:59N 40°39' W 074°02'0 0.1
2017-Oct-16 09:29N 40°39' W 074°02'0 0.0
2017-Oct-16 08:59N 40°39' W 074°02'0 0.1
2017-Oct-16 08:29N 40°39' W 074°02'0 0.0
2017-Oct-16 07:59N 40°39' W 074°02'0 0.2
2017-Oct-16 07:30N 40°39' W 074°02'1 2.1
2017-Oct-16 07:00N 40°40' W 074°02'3 6.7
2017-Oct-16 06:30N 40°43' W 073°59'4 7.0
2017-Oct-16 06:00N 40°46' W 073°57'3 5.3
2017-Oct-16 05:30N 40°48' W 073°55'2 4.2
2017-Oct-16 05:00N 40°48' W 073°52'2 4.3
2017-Oct-16 04:29N 40°48' W 073°49'2 2.9
2017-Oct-16 03:50N 40°49' W 073°47'1 2.1
2017-Oct-16 03:28N 40°50' W 073°47'52 2.2
2017-Oct-15 04:06N 41°00' W 072°40'0 1.2
2017-Oct-15 03:44N 41°00' W 072°39'34 9.2
2017-Oct-15 00:03N 40°60' W 073°24'1 9.1
2017-Oct-14 23:58N 40°59' W 073°25'4 8.4
2017-Oct-14 23:26N 40°58' W 073°30'9 8.6
2017-Oct-14 22:20N 40°54' W 073°42'3 8.6
2017-Oct-14 22:00N 40°52' W 073°45'4 8.2
2017-Oct-14 21:30N 40°48' W 073°47'5 8.8
2017-Oct-14 20:54N 40°48' W 073°54'411.0
2017-Oct-14 20:30N 40°45' W 073°58'5 9.7
2017-Oct-14 20:00N 40°41' W 074°02'2 4.0
2017-Oct-14 19:30N 40°40' W 074°04'0 0.5
2017-Oct-14 19:00N 40°40' W 074°04'3 6.0
2017-Oct-14 18:30N 40°38' W 074°08'0 0.0
2017-Oct-14 18:00N 40°38' W 074°08'0 0.1
2017-Oct-14 17:30N 40°38' W 074°08'4 7.6
2017-Oct-14 17:00N 40°37' W 074°12'4 7.2
2017-Oct-14 16:29N 40°33' W 074°14'0 0.0
2017-Oct-14 16:00N 40°33' W 074°14'1 2.0
2017-Oct-14 15:26N 40°34' W 074°13'4 9.5
2017-Oct-14 15:00N 40°38' W 074°12'3 6.6
2017-Oct-14 14:30N 40°38' W 074°08'0 0.0
2017-Oct-14 14:00N 40°38' W 074°08'2 3.8
2017-Oct-14 13:30N 40°39' W 074°10'2 3.5
2017-Oct-14 12:58N 40°38' W 074°12'1 1.6
2017-Oct-14 12:30N 40°38' W 074°12'3 3.1
2017-Oct-14 11:33N 40°39' W 074°08'0 6.4
2017-Oct-14 11:29N 40°39' W 074°07'4 7.6
2017-Oct-14 11:00N 40°40' W 074°03'5 9.6
2017-Oct-14 10:30N 40°43' W 073°58'3 5.0
2017-Oct-14 09:58N 40°46' W 073°57'0 0.0
2017-Oct-14 09:30N 40°46' W 073°57'0 0.0
2017-Oct-14 09:00N 40°46' W 073°57'0 0.1
2017-Oct-14 08:30N 40°46' W 073°57'0 0.0
2017-Oct-14 07:59N 40°46' W 073°57'0 0.0
2017-Oct-14 07:30N 40°46' W 073°57'0 0.0
2017-Oct-14 07:00N 40°46' W 073°57'0 0.0
2017-Oct-14 06:29N 40°46' W 073°57'0 0.0
2017-Oct-14 06:00N 40°46' W 073°57'0 0.1
2017-Oct-14 05:30N 40°46' W 073°57'0 0.0
2017-Oct-14 05:00N 40°46' W 073°57'0 0.1
2017-Oct-14 04:29N 40°46' W 073°57'4 8.1
2017-Oct-14 04:00N 40°42' W 073°60'3 6.3
2017-Oct-14 03:30N 40°45' W 073°58'4 7.1
2017-Oct-14 03:00N 40°48' W 073°55'1 2.8
2017-Oct-14 02:29N 40°48' W 073°53'1 1.9
2017-Oct-14 01:59N 40°48' W 073°54'4 7.7
2017-Oct-14 01:30N 40°45' W 073°57'4 7.1
2017-Oct-14 01:00N 40°42' W 073°60'4 9.2
2017-Oct-14 00:30N 40°39' W 074°04'3 1.4
2017-Oct-13 22:30N 40°38' W 074°08'3 6.9
2017-Oct-13 22:00N 40°37' W 074°12'2 1.8
2017-Oct-13 20:46N 40°35' W 074°12'1 1.8
2017-Oct-13 20:29N 40°35' W 074°13'3 2.0
2017-Oct-13 19:04N 40°33' W 074°15'2 9.4
2017-Oct-13 18:49N 40°34' W 074°13'2 5.2
2017-Oct-13 18:30N 40°36' W 074°12'0 0.0
2017-Oct-13 18:00N 40°36' W 074°12'0 0.0
2017-Oct-13 17:30N 40°36' W 074°12'0 0.0
2017-Oct-13 17:00N 40°36' W 074°12'0 0.0
2017-Oct-13 16:30N 40°36' W 074°12'3 5.5
2017-Oct-13 16:00N 40°33' W 074°14'4 1.9
2017-Oct-13 13:53N 40°29' W 074°15'3 6.2
2017-Oct-13 13:23N 40°33' W 074°15'4 8.8
2017-Oct-13 12:59N 40°35' W 074°12'4 8.1
2017-Oct-13 12:30N 40°39' W 074°10'2 2.5
2017-Oct-13 11:53N 40°38' W 074°08'0 0.0
2017-Oct-13 11:29N 40°38' W 074°08'0 0.0
2017-Oct-13 10:47N 40°38' W 074°08'0 0.0
2017-Oct-13 10:23N 40°38' W 074°08'0 0.0
2017-Oct-13 09:59N 40°38' W 074°08'2 4.0
2017-Oct-13 09:30N 40°39' W 074°05'1 2.5
2017-Oct-13 08:59N 40°40' W 074°05'2 4.6
2017-Oct-13 08:30N 40°39' W 074°07'1 1.5
2017-Oct-13 08:00N 40°38' W 074°08'0 0.0
2017-Oct-13 07:30N 40°38' W 074°08'0 0.0
2017-Oct-13 07:00N 40°38' W 074°08'0 0.0
2017-Oct-13 06:30N 40°38' W 074°08'0 0.0
2017-Oct-13 06:00N 40°38' W 074°08'0 0.0
2017-Oct-13 05:30N 40°38' W 074°08'0 0.0
2017-Oct-13 05:00N 40°38' W 074°08'0 0.0
2017-Oct-13 04:30N 40°38' W 074°08'0 0.0
2017-Oct-13 04:00N 40°38' W 074°08'0 0.0
2017-Oct-13 03:30N 40°38' W 074°08'1 2.1
2017-Oct-13 03:00N 40°39' W 074°09'2 4.1
2017-Oct-13 02:30N 40°41' W 074°09'0 0.1
2017-Oct-13 02:00N 40°41' W 074°09'1 1.6
2017-Oct-13 01:30N 40°41' W 074°08'0 0.0
2017-Oct-13 01:00N 40°41' W 074°08'0 0.7
2017-Oct-13 00:20N 40°42' W 074°09'0 0.1
2017-Oct-13 00:00N 40°42' W 074°09'4 7.8
2017-Oct-12 23:30N 40°39' W 074°11'2 4.2
2017-Oct-12 23:00N 40°37' W 074°12'0 0.0
2017-Oct-12 22:29N 40°37' W 074°12'0 0.0
2017-Oct-12 21:59N 40°37' W 074°12'0 0.7
2017-Oct-12 21:29N 40°37' W 074°12'2 4.5
2017-Oct-12 21:00N 40°39' W 074°11'2 4.4
2017-Oct-12 20:29N 40°38' W 074°08'0 0.0
2017-Oct-12 19:38N 40°38' W 074°08'0 0.0
2017-Oct-12 19:23N 40°38' W 074°08'0 0.0
2017-Oct-12 18:56N 40°38' W 074°08'0 0.0
2017-Oct-12 18:29N 40°38' W 074°08'0 0.0
2017-Oct-12 17:59N 40°38' W 074°08'0 0.0
2017-Oct-12 17:29N 40°38' W 074°08'0 0.0
2017-Oct-12 16:56N 40°38' W 074°08'0 0.0
2017-Oct-12 16:29N 40°38' W 074°08'0 0.0
2017-Oct-12 15:59N 40°38' W 074°08'0 0.0
2017-Oct-12 15:29N 40°38' W 074°08'0 0.0
2017-Oct-12 14:59N 40°38' W 074°08'0 0.0
2017-Oct-12 14:29N 40°38' W 074°08'0 0.0
2017-Oct-12 13:56N 40°38' W 074°08'0 0.0
2017-Oct-12 13:29N 40°38' W 074°08'0 0.0
2017-Oct-12 12:59N 40°38' W 074°08'0 0.0
2017-Oct-12 12:29N 40°38' W 074°08'0 0.0
2017-Oct-12 11:53N 40°38' W 074°08'0 0.0
2017-Oct-12 11:29N 40°38' W 074°08'0 0.0
2017-Oct-12 10:59N 40°38' W 074°08'2 4.8
2017-Oct-12 10:30N 40°41' W 074°09'1 1.4
2017-Oct-12 10:00N 40°41' W 074°09'1 2.7
2017-Oct-12 09:30N 40°40' W 074°08'2 3.3
2017-Oct-12 09:00N 40°39' W 074°07'3 5.8
2017-Oct-12 08:29N 40°38' W 074°03'3 5.6
2017-Oct-12 08:00N 40°39' W 074°07'1 0.3
2017-Oct-12 05:34N 40°38' W 074°08'0 0.0
2017-Oct-12 05:16N 40°38' W 074°08'0 0.0
2017-Oct-12 04:52N 40°38' W 074°08'0 0.0
2017-Oct-12 04:25N 40°38' W 074°08'0 0.0
2017-Oct-12 03:52N 40°38' W 074°08'0 0.0
2017-Oct-12 03:28N 40°38' W 074°08'0 0.0
2017-Oct-12 02:58N 40°38' W 074°08'0 0.0
2017-Oct-12 02:28N 40°38' W 074°08'0 0.0
2017-Oct-12 01:52N 40°38' W 074°08'0 0.0
2017-Oct-12 01:28N 40°38' W 074°08'0 0.0
2017-Oct-12 00:55N 40°38' W 074°08'0 0.0
2017-Oct-12 00:28N 40°38' W 074°08'0 0.0
2017-Oct-11 23:58N 40°38' W 074°08'0 0.0
2017-Oct-11 23:25N 40°38' W 074°08'0 0.0
2017-Oct-11 22:58N 40°38' W 074°08'1 1.8
2017-Oct-11 22:30N 40°39' W 074°09'2 3.5
2017-Oct-11 21:56N 40°38' W 074°11'0 0.1
2017-Oct-11 21:28N 40°38' W 074°12'0 0.0
2017-Oct-11 21:00N 40°38' W 074°12'0 0.2
2017-Oct-11 20:30N 40°38' W 074°11'2 4.5
2017-Oct-11 20:00N 40°39' W 074°09'1 2.8
2017-Oct-11 19:30N 40°41' W 074°09'0 0.0
2017-Oct-11 19:00N 40°41' W 074°09'0 0.4
2017-Oct-11 18:30N 40°41' W 074°09'0 0.0
2017-Oct-11 18:00N 40°41' W 074°09'0 0.0
2017-Oct-11 17:30N 40°41' W 074°09'0 0.0
2017-Oct-11 17:00N 40°41' W 074°09'4 0.2
2017-Oct-11 00:00N 40°40' W 074°04'0 0.0
2017-Oct-10 23:30N 40°40' W 074°04'0 0.0
2017-Oct-10 23:00N 40°40' W 074°04'0 0.0
2017-Oct-10 22:30N 40°40' W 074°04'0 0.0
2017-Oct-10 22:00N 40°40' W 074°04'0 0.0
2017-Oct-10 21:30N 40°40' W 074°04'0 0.0
2017-Oct-10 21:00N 40°40' W 074°04'0 0.0
2017-Oct-10 20:30N 40°40' W 074°04'0 0.0
2017-Oct-10 20:00N 40°40' W 074°04'0 0.1
2017-Oct-10 19:30N 40°40' W 074°04'1 2.8
2017-Oct-10 19:00N 40°40' W 074°02'0 0.2
2017-Oct-10 18:31N 40°40' W 074°02'4 8.4
2017-Oct-10 17:59N 40°38' W 074°08'0 0.0
2017-Oct-10 17:29N 40°38' W 074°08'0 0.0
2017-Oct-10 16:56N 40°38' W 074°08'0 0.0
2017-Oct-10 16:29N 40°38' W 074°08'0 0.0
2017-Oct-10 15:53N 40°38' W 074°08'0 0.0
2017-Oct-10 15:17N 40°38' W 074°08'0 0.0
2017-Oct-10 14:59N 40°38' W 074°08'0 0.0
2017-Oct-10 13:59N 40°38' W 074°08'0 0.0
2017-Oct-10 13:29N 40°38' W 074°08'0 0.0
2017-Oct-10 12:59N 40°38' W 074°08'0 0.0
2017-Oct-10 12:29N 40°38' W 074°08'0 0.0
2017-Oct-10 11:59N 40°38' W 074°08'0 0.0
2017-Oct-10 11:29N 40°38' W 074°08'0 0.0
2017-Oct-10 11:01N 40°38' W 074°08'2 4.5
2017-Oct-10 10:30N 40°41' W 074°08'0 0.3
2017-Oct-10 10:00N 40°40' W 074°08'0 0.4
2017-Oct-10 09:31N 40°41' W 074°09'2 4.2
2017-Oct-10 09:01N 40°39' W 074°08'0 0.6
2017-Oct-10 08:30N 40°38' W 074°08'0 0.0
2017-Oct-10 08:00N 40°38' W 074°08'0 0.0
2017-Oct-10 07:30N 40°38' W 074°08'0 0.0
2017-Oct-10 07:00N 40°38' W 074°08'0 0.0
2017-Oct-10 06:30N 40°38' W 074°08'0 0.0
2017-Oct-10 06:00N 40°38' W 074°08'0 0.0
2017-Oct-10 05:30N 40°38' W 074°08'0 0.0
2017-Oct-10 05:00N 40°38' W 074°08'0 0.0
2017-Oct-10 04:30N 40°38' W 074°08'0 0.0
2017-Oct-10 04:00N 40°38' W 074°08'0 0.0
2017-Oct-10 03:30N 40°38' W 074°08'  

Dump ship's entire track history